sensor_id;sensor_type;location;lat;lon;timestamp;P1;durP1;ratioP1;P2;durP2;ratioP2
13483;SDS011;6814;57.786;12.080;2024-03-23T00:55:28;40.60;;;6.77;;
13483;SDS011;6814;57.786;12.080;2024-03-23T00:57:54;35.43;;;5.43;;
13483;SDS011;6814;57.786;12.080;2024-03-23T01:00:20;28.83;;;6.70;;
13483;SDS011;6814;57.786;12.080;2024-03-23T01:02:46;33.27;;;6.00;;
13483;SDS011;6814;57.786;12.080;2024-03-23T01:05:12;31.43;;;6.03;;
13483;SDS011;6814;57.786;12.080;2024-03-23T01:07:38;30.90;;;5.17;;
13483;SDS011;6814;57.786;12.080;2024-03-23T01:10:05;31.93;;;5.97;;
13483;SDS011;6814;57.786;12.080;2024-03-23T01:12:32;32.40;;;5.87;;
13483;SDS011;6814;57.786;12.080;2024-03-23T01:14:58;25.00;;;6.27;;
13483;SDS011;6814;57.786;12.080;2024-03-23T01:17:24;28.27;;;6.00;;
13483;SDS011;6814;57.786;12.080;2024-03-23T01:19:50;31.67;;;6.20;;
13483;SDS011;6814;57.786;12.080;2024-03-23T01:22:16;30.43;;;6.07;;
13483;SDS011;6814;57.786;12.080;2024-03-23T01:24:42;36.70;;;6.20;;
13483;SDS011;6814;57.786;12.080;2024-03-23T01:27:08;27.07;;;5.23;;
13483;SDS011;6814;57.786;12.080;2024-03-23T01:29:36;32.87;;;6.37;;
13483;SDS011;6814;57.786;12.080;2024-03-23T01:32:02;24.60;;;5.07;;
13483;SDS011;6814;57.786;12.080;2024-03-23T01:34:28;29.33;;;5.67;;
13483;SDS011;6814;57.786;12.080;2024-03-23T01:36:54;30.00;;;5.70;;
13483;SDS011;6814;57.786;12.080;2024-03-23T01:39:20;29.33;;;6.00;;
13483;SDS011;6814;57.786;12.080;2024-03-23T01:41:46;32.43;;;5.87;;
13483;SDS011;6814;57.786;12.080;2024-03-23T01:44:12;31.00;;;6.37;;
13483;SDS011;6814;57.786;12.080;2024-03-23T01:46:39;24.37;;;5.40;;
13483;SDS011;6814;57.786;12.080;2024-03-23T01:49:06;29.97;;;6.47;;
13483;SDS011;6814;57.786;12.080;2024-03-23T01:51:32;30.37;;;7.00;;
13483;SDS011;6814;57.786;12.080;2024-03-23T01:54:00;28.00;;;5.53;;
13483;SDS011;6814;57.786;12.080;2024-03-23T01:56:28;32.63;;;6.33;;
13483;SDS011;6814;57.786;12.080;2024-03-23T01:58:55;38.03;;;6.97;;
13483;SDS011;6814;57.786;12.080;2024-03-23T02:01:20;35.70;;;5.77;;
13483;SDS011;6814;57.786;12.080;2024-03-23T02:03:48;27.23;;;6.17;;
13483;SDS011;6814;57.786;12.080;2024-03-23T02:06:14;37.37;;;7.23;;
13483;SDS011;6814;57.786;12.080;2024-03-23T02:08:40;22.20;;;5.13;;
13483;SDS011;6814;57.786;12.080;2024-03-23T02:11:06;40.20;;;6.50;;
13483;SDS011;6814;57.786;12.080;2024-03-23T02:13:33;34.40;;;7.40;;
13483;SDS011;6814;57.786;12.080;2024-03-23T02:15:58;29.00;;;5.63;;
13483;SDS011;6814;57.786;12.080;2024-03-23T02:18:25;21.70;;;6.10;;
13483;SDS011;6814;57.786;12.080;2024-03-23T02:20:52;33.57;;;6.70;;
13483;SDS011;6814;57.786;12.080;2024-03-23T02:23:19;29.53;;;6.30;;
13483;SDS011;6814;57.786;12.080;2024-03-23T02:25:45;30.17;;;5.93;;
13483;SDS011;6814;57.786;12.080;2024-03-23T02:28:12;23.07;;;5.60;;
13483;SDS011;6814;57.786;12.080;2024-03-23T02:30:37;32.87;;;6.60;;
13483;SDS011;6814;57.786;12.080;2024-03-23T02:33:04;30.43;;;6.47;;
13483;SDS011;6814;57.786;12.080;2024-03-23T02:35:30;28.07;;;6.10;;
13483;SDS011;6814;57.786;12.080;2024-03-23T02:37:56;25.87;;;6.23;;
13483;SDS011;6814;57.786;12.080;2024-03-23T02:40:23;33.47;;;6.27;;
13483;SDS011;6814;57.786;12.080;2024-03-23T02:42:50;32.17;;;6.23;;
13483;SDS011;6814;57.786;12.080;2024-03-23T02:45:16;43.20;;;8.10;;
13483;SDS011;6814;57.786;12.080;2024-03-23T02:47:42;26.23;;;5.50;;
13483;SDS011;6814;57.786;12.080;2024-03-23T02:50:08;23.07;;;4.70;;
13483;SDS011;6814;57.786;12.080;2024-03-23T02:52:35;29.93;;;6.40;;
13483;SDS011;6814;57.786;12.080;2024-03-23T02:55:01;39.83;;;5.90;;
13483;SDS011;6814;57.786;12.080;2024-03-23T02:57:29;30.47;;;5.53;;
13483;SDS011;6814;57.786;12.080;2024-03-23T02:59:54;32.77;;;6.67;;
13483;SDS011;6814;57.786;12.080;2024-03-23T03:02:21;36.63;;;7.00;;
13483;SDS011;6814;57.786;12.080;2024-03-23T03:04:47;36.50;;;6.80;;
13483;SDS011;6814;57.786;12.080;2024-03-23T03:07:13;33.57;;;8.23;;
13483;SDS011;6814;57.786;12.080;2024-03-23T03:09:39;26.33;;;6.77;;
13483;SDS011;6814;57.786;12.080;2024-03-23T03:12:06;31.33;;;6.73;;
13483;SDS011;6814;57.786;12.080;2024-03-23T03:14:33;32.37;;;6.83;;
13483;SDS011;6814;57.786;12.080;2024-03-23T03:16:59;30.67;;;7.23;;
13483;SDS011;6814;57.786;12.080;2024-03-23T03:19:25;36.17;;;7.67;;
13483;SDS011;6814;57.786;12.080;2024-03-23T03:21:52;26.50;;;5.87;;
13483;SDS011;6814;57.786;12.080;2024-03-23T03:24:18;26.07;;;5.07;;
13483;SDS011;6814;57.786;12.080;2024-03-23T03:26:44;41.83;;;7.47;;
13483;SDS011;6814;57.786;12.080;2024-03-23T03:29:10;30.23;;;5.60;;
13483;SDS011;6814;57.786;12.080;2024-03-23T03:31:38;33.57;;;5.47;;
13483;SDS011;6814;57.786;12.080;2024-03-23T03:34:03;34.33;;;4.70;;
13483;SDS011;6814;57.786;12.080;2024-03-23T03:36:30;27.90;;;5.67;;
13483;SDS011;6814;57.786;12.080;2024-03-23T03:38:56;29.10;;;5.67;;
13483;SDS011;6814;57.786;12.080;2024-03-23T03:41:22;27.47;;;6.07;;
13483;SDS011;6814;57.786;12.080;2024-03-23T03:43:48;32.23;;;5.77;;
13483;SDS011;6814;57.786;12.080;2024-03-23T03:46:14;31.93;;;5.60;;
13483;SDS011;6814;57.786;12.080;2024-03-23T03:48:41;27.30;;;5.23;;
13483;SDS011;6814;57.786;12.080;2024-03-23T03:51:10;27.20;;;5.20;;
13483;SDS011;6814;57.786;12.080;2024-03-23T03:53:35;22.63;;;4.57;;
13483;SDS011;6814;57.786;12.080;2024-03-23T03:56:02;34.80;;;5.43;;
13483;SDS011;6814;57.786;12.080;2024-03-23T03:58:28;32.60;;;5.63;;
13483;SDS011;6814;57.786;12.080;2024-03-23T04:00:54;27.10;;;5.83;;
13483;SDS011;6814;57.786;12.080;2024-03-23T04:03:20;35.63;;;5.90;;
13483;SDS011;6814;57.786;12.080;2024-03-23T04:05:51;34.67;;;6.00;;
13483;SDS011;6814;57.786;12.080;2024-03-23T04:08:16;29.87;;;7.30;;
13483;SDS011;6814;57.786;12.080;2024-03-23T04:10:43;29.57;;;6.57;;
13483;SDS011;6814;57.786;12.080;2024-03-23T04:13:08;32.70;;;8.00;;
13483;SDS011;6814;57.786;12.080;2024-03-23T04:15:35;33.20;;;6.07;;
13483;SDS011;6814;57.786;12.080;2024-03-23T04:18:00;30.63;;;6.50;;
13483;SDS011;6814;57.786;12.080;2024-03-23T04:20:27;32.13;;;6.23;;
13483;SDS011;6814;57.786;12.080;2024-03-23T04:22:54;33.70;;;7.20;;
13483;SDS011;6814;57.786;12.080;2024-03-23T04:25:20;26.57;;;5.50;;
13483;SDS011;6814;57.786;12.080;2024-03-23T04:27:46;35.20;;;6.73;;
13483;SDS011;6814;57.786;12.080;2024-03-23T04:30:12;32.57;;;6.07;;
13483;SDS011;6814;57.786;12.080;2024-03-23T04:32:38;35.00;;;6.67;;
13483;SDS011;6814;57.786;12.080;2024-03-23T04:35:05;28.90;;;5.57;;
13483;SDS011;6814;57.786;12.080;2024-03-23T04:37:31;24.33;;;5.17;;
13483;SDS011;6814;57.786;12.080;2024-03-23T04:39:59;25.00;;;5.17;;
13483;SDS011;6814;57.786;12.080;2024-03-23T04:42:25;26.37;;;5.57;;
13483;SDS011;6814;57.786;12.080;2024-03-23T04:44:52;23.97;;;4.67;;
13483;SDS011;6814;57.786;12.080;2024-03-23T04:47:19;29.07;;;5.00;;
13483;SDS011;6814;57.786;12.080;2024-03-23T04:49:46;39.40;;;8.13;;
13483;SDS011;6814;57.786;12.080;2024-03-23T04:52:12;21.03;;;4.20;;
13483;SDS011;6814;57.786;12.080;2024-03-23T04:54:39;26.23;;;4.83;;
13483;SDS011;6814;57.786;12.080;2024-03-23T04:57:07;28.17;;;4.73;;
13483;SDS011;6814;57.786;12.080;2024-03-23T04:59:32;23.63;;;4.40;;
13483;SDS011;6814;57.786;12.080;2024-03-23T05:01:59;35.40;;;5.13;;
13483;SDS011;6814;57.786;12.080;2024-03-23T05:04:26;24.43;;;5.00;;
13483;SDS011;6814;57.786;12.080;2024-03-23T05:06:51;27.00;;;4.50;;
13483;SDS011;6814;57.786;12.080;2024-03-23T05:09:18;25.77;;;4.60;;
13483;SDS011;6814;57.786;12.080;2024-03-23T05:11:45;26.10;;;5.40;;
13483;SDS011;6814;57.786;12.080;2024-03-23T05:14:13;26.40;;;4.63;;
13483;SDS011;6814;57.786;12.080;2024-03-23T05:16:39;23.70;;;4.63;;
13483;SDS011;6814;57.786;12.080;2024-03-23T05:19:05;27.20;;;5.13;;
13483;SDS011;6814;57.786;12.080;2024-03-23T05:21:31;25.43;;;4.87;;
13483;SDS011;6814;57.786;12.080;2024-03-23T05:23:57;35.77;;;5.03;;
13483;SDS011;6814;57.786;12.080;2024-03-23T05:26:23;28.80;;;4.53;;
13483;SDS011;6814;57.786;12.080;2024-03-23T05:28:50;25.67;;;4.27;;
13483;SDS011;6814;57.786;12.080;2024-03-23T05:31:23;25.80;;;5.53;;
13483;SDS011;6814;57.786;12.080;2024-03-23T05:33:50;26.23;;;4.77;;
13483;SDS011;6814;57.786;12.080;2024-03-23T05:36:17;33.70;;;5.37;;
13483;SDS011;6814;57.786;12.080;2024-03-23T05:38:44;25.37;;;4.30;;
13483;SDS011;6814;57.786;12.080;2024-03-23T05:41:11;25.17;;;5.17;;
13483;SDS011;6814;57.786;12.080;2024-03-23T05:43:36;32.47;;;4.63;;
13483;SDS011;6814;57.786;12.080;2024-03-23T05:46:03;25.73;;;4.70;;
13483;SDS011;6814;57.786;12.080;2024-03-23T05:48:31;29.03;;;5.57;;
13483;SDS011;6814;57.786;12.080;2024-03-23T05:50:57;23.37;;;4.03;;
13483;SDS011;6814;57.786;12.080;2024-03-23T05:53:23;24.63;;;4.10;;
13483;SDS011;6814;57.786;12.080;2024-03-23T05:55:50;31.13;;;5.17;;
13483;SDS011;6814;57.786;12.080;2024-03-23T05:58:16;20.10;;;4.53;;
13483;SDS011;6814;57.786;12.080;2024-03-23T06:00:43;27.27;;;5.50;;
13483;SDS011;6814;57.786;12.080;2024-03-23T06:03:09;23.90;;;4.33;;
13483;SDS011;6814;57.786;12.080;2024-03-23T06:05:37;22.30;;;5.10;;
13483;SDS011;6814;57.786;12.080;2024-03-23T06:08:03;25.93;;;5.20;;
13483;SDS011;6814;57.786;12.080;2024-03-23T06:10:30;23.20;;;4.37;;
13483;SDS011;6814;57.786;12.080;2024-03-23T06:12:56;26.40;;;5.00;;
13483;SDS011;6814;57.786;12.080;2024-03-23T06:15:24;29.50;;;5.07;;
13483;SDS011;6814;57.786;12.080;2024-03-23T06:17:50;28.27;;;4.93;;
13483;SDS011;6814;57.786;12.080;2024-03-23T06:20:16;29.00;;;4.97;;
13483;SDS011;6814;57.786;12.080;2024-03-23T06:22:43;21.40;;;4.67;;
13483;SDS011;6814;57.786;12.080;2024-03-23T06:25:10;24.87;;;4.40;;
13483;SDS011;6814;57.786;12.080;2024-03-23T06:27:37;30.07;;;5.67;;
13483;SDS011;6814;57.786;12.080;2024-03-23T06:30:05;26.13;;;5.23;;
13483;SDS011;6814;57.786;12.080;2024-03-23T06:32:30;29.53;;;5.67;;
13483;SDS011;6814;57.786;12.080;2024-03-23T06:34:57;20.67;;;4.10;;
13483;SDS011;6814;57.786;12.080;2024-03-23T06:37:22;27.10;;;5.90;;
13483;SDS011;6814;57.786;12.080;2024-03-23T06:39:50;23.13;;;5.03;;
13483;SDS011;6814;57.786;12.080;2024-03-23T06:42:16;27.40;;;5.23;;
13483;SDS011;6814;57.786;12.080;2024-03-23T06:44:43;29.83;;;5.33;;
13483;SDS011;6814;57.786;12.080;2024-03-23T06:47:08;31.10;;;5.57;;
13483;SDS011;6814;57.786;12.080;2024-03-23T06:49:35;24.07;;;5.23;;
13483;SDS011;6814;57.786;12.080;2024-03-23T06:52:00;28.27;;;4.80;;
13483;SDS011;6814;57.786;12.080;2024-03-23T06:54:27;22.83;;;4.73;;
13483;SDS011;6814;57.786;12.080;2024-03-23T06:56:54;27.87;;;5.00;;
13483;SDS011;6814;57.786;12.080;2024-03-23T06:59:21;30.63;;;5.43;;
13483;SDS011;6814;57.786;12.080;2024-03-23T07:01:46;25.63;;;5.40;;
13483;SDS011;6814;57.786;12.080;2024-03-23T07:04:13;18.23;;;4.40;;
13483;SDS011;6814;57.786;12.080;2024-03-23T07:06:42;23.33;;;4.33;;
13483;SDS011;6814;57.786;12.080;2024-03-23T07:09:08;31.60;;;6.47;;
13483;SDS011;6814;57.786;12.080;2024-03-23T07:11:34;19.60;;;4.23;;
13483;SDS011;6814;57.786;12.080;2024-03-23T07:14:02;27.07;;;4.87;;
13483;SDS011;6814;57.786;12.080;2024-03-23T07:16:28;21.53;;;4.33;;
13483;SDS011;6814;57.786;12.080;2024-03-23T07:18:54;24.70;;;4.87;;
13483;SDS011;6814;57.786;12.080;2024-03-23T07:21:20;19.03;;;3.67;;
13483;SDS011;6814;57.786;12.080;2024-03-23T07:23:47;18.40;;;4.40;;
13483;SDS011;6814;57.786;12.080;2024-03-23T07:26:12;22.20;;;4.90;;
13483;SDS011;6814;57.786;12.080;2024-03-23T07:28:39;20.30;;;4.60;;
13483;SDS011;6814;57.786;12.080;2024-03-23T07:31:10;25.00;;;4.47;;
13483;SDS011;6814;57.786;12.080;2024-03-23T07:33:42;18.80;;;3.40;;
13483;SDS011;6814;57.786;12.080;2024-03-23T07:36:08;20.30;;;4.40;;
13483;SDS011;6814;57.786;12.080;2024-03-23T07:38:34;22.47;;;4.87;;
13483;SDS011;6814;57.786;12.080;2024-03-23T07:41:03;22.20;;;4.50;;
13483;SDS011;6814;57.786;12.080;2024-03-23T07:43:30;21.17;;;4.93;;
13483;SDS011;6814;57.786;12.080;2024-03-23T07:45:56;20.10;;;3.57;;
13483;SDS011;6814;57.786;12.080;2024-03-23T07:48:24;20.87;;;3.60;;
13483;SDS011;6814;57.786;12.080;2024-03-23T07:50:57;31.13;;;5.47;;
13483;SDS011;6814;57.786;12.080;2024-03-23T07:53:23;21.93;;;4.43;;
13483;SDS011;6814;57.786;12.080;2024-03-23T07:55:57;22.93;;;4.37;;
13483;SDS011;6814;57.786;12.080;2024-03-23T07:58:24;23.07;;;3.53;;
13483;SDS011;6814;57.786;12.080;2024-03-23T08:00:50;15.70;;;3.90;;
13483;SDS011;6814;57.786;12.080;2024-03-23T08:03:16;23.30;;;3.93;;
13483;SDS011;6814;57.786;12.080;2024-03-23T08:05:43;23.67;;;4.30;;
13483;SDS011;6814;57.786;12.080;2024-03-23T08:08:10;17.57;;;3.47;;
13483;SDS011;6814;57.786;12.080;2024-03-23T08:10:36;24.33;;;4.03;;
13483;SDS011;6814;57.786;12.080;2024-03-23T08:13:02;33.10;;;5.67;;
13483;SDS011;6814;57.786;12.080;2024-03-23T08:15:29;21.93;;;4.17;;
13483;SDS011;6814;57.786;12.080;2024-03-23T08:17:58;23.03;;;4.03;;
13483;SDS011;6814;57.786;12.080;2024-03-23T08:20:24;19.33;;;5.63;;
13483;SDS011;6814;57.786;12.080;2024-03-23T08:22:51;16.40;;;4.77;;
13483;SDS011;6814;57.786;12.080;2024-03-23T08:25:18;21.07;;;4.30;;
13483;SDS011;6814;57.786;12.080;2024-03-23T08:27:44;21.53;;;5.17;;
13483;SDS011;6814;57.786;12.080;2024-03-23T08:30:11;20.90;;;4.53;;
13483;SDS011;6814;57.786;12.080;2024-03-23T08:32:36;17.17;;;4.53;;
13483;SDS011;6814;57.786;12.080;2024-03-23T08:35:03;19.90;;;4.53;;
13483;SDS011;6814;57.786;12.080;2024-03-23T08:37:29;21.47;;;4.50;;
13483;SDS011;6814;57.786;12.080;2024-03-23T08:39:57;19.50;;;4.33;;
13483;SDS011;6814;57.786;12.080;2024-03-23T08:42:23;18.53;;;4.80;;
13483;SDS011;6814;57.786;12.080;2024-03-23T08:44:49;23.93;;;5.00;;
13483;SDS011;6814;57.786;12.080;2024-03-23T08:47:15;15.73;;;4.53;;
13483;SDS011;6814;57.786;12.080;2024-03-23T08:49:41;20.23;;;4.60;;
13483;SDS011;6814;57.786;12.080;2024-03-23T08:52:07;17.73;;;4.23;;
13483;SDS011;6814;57.786;12.080;2024-03-23T08:54:34;21.53;;;4.27;;
13483;SDS011;6814;57.786;12.080;2024-03-23T08:57:01;23.07;;;4.23;;
13483;SDS011;6814;57.786;12.080;2024-03-23T08:59:27;23.40;;;4.13;;
13483;SDS011;6814;57.786;12.080;2024-03-23T09:01:53;20.53;;;4.17;;
13483;SDS011;6814;57.786;12.080;2024-03-23T09:04:19;18.53;;;4.27;;
13483;SDS011;6814;57.786;12.080;2024-03-23T09:06:46;23.60;;;5.27;;
13483;SDS011;6814;57.786;12.080;2024-03-23T09:09:13;21.73;;;5.43;;
13483;SDS011;6814;57.786;12.080;2024-03-23T09:11:38;16.57;;;3.53;;
13483;SDS011;6814;57.786;12.080;2024-03-23T09:14:06;20.33;;;4.97;;
13483;SDS011;6814;57.786;12.080;2024-03-23T09:16:32;21.17;;;4.90;;
13483;SDS011;6814;57.786;12.080;2024-03-23T09:18:59;26.10;;;4.43;;
13483;SDS011;6814;57.786;12.080;2024-03-23T09:21:24;15.90;;;3.93;;
13483;SDS011;6814;57.786;12.080;2024-03-23T09:23:51;26.77;;;5.10;;
13483;SDS011;6814;57.786;12.080;2024-03-23T09:26:16;18.53;;;4.00;;
13483;SDS011;6814;57.786;12.080;2024-03-23T09:28:43;19.43;;;3.60;;
13483;SDS011;6814;57.786;12.080;2024-03-23T09:31:10;23.40;;;4.90;;
13483;SDS011;6814;57.786;12.080;2024-03-23T09:33:39;20.17;;;4.27;;
13483;SDS011;6814;57.786;12.080;2024-03-23T09:36:05;20.90;;;5.20;;
13483;SDS011;6814;57.786;12.080;2024-03-23T09:38:32;16.97;;;3.77;;
13483;SDS011;6814;57.786;12.080;2024-03-23T09:40:57;18.70;;;4.23;;
13483;SDS011;6814;57.786;12.080;2024-03-23T09:43:24;20.70;;;3.77;;
13483;SDS011;6814;57.786;12.080;2024-03-23T09:45:50;18.67;;;4.43;;
13483;SDS011;6814;57.786;12.080;2024-03-23T09:48:19;19.23;;;4.37;;
13483;SDS011;6814;57.786;12.080;2024-03-23T09:50:45;23.97;;;4.63;;
13483;SDS011;6814;57.786;12.080;2024-03-23T09:53:12;25.20;;;4.73;;
13483;SDS011;6814;57.786;12.080;2024-03-23T09:55:38;21.70;;;4.73;;
13483;SDS011;6814;57.786;12.080;2024-03-23T09:58:05;25.83;;;4.70;;
13483;SDS011;6814;57.786;12.080;2024-03-23T10:00:30;27.37;;;4.83;;
13483;SDS011;6814;57.786;12.080;2024-03-23T10:02:58;16.80;;;3.97;;
13483;SDS011;6814;57.786;12.080;2024-03-23T10:05:28;17.40;;;3.77;;
13483;SDS011;6814;57.786;12.080;2024-03-23T10:07:56;20.83;;;4.13;;
13483;SDS011;6814;57.786;12.080;2024-03-23T10:10:22;16.90;;;3.30;;
13483;SDS011;6814;57.786;12.080;2024-03-23T10:12:51;21.33;;;4.20;;
13483;SDS011;6814;57.786;12.080;2024-03-23T10:15:20;15.50;;;3.10;;
13483;SDS011;6814;57.786;12.080;2024-03-23T10:17:47;15.13;;;3.33;;
13483;SDS011;6814;57.786;12.080;2024-03-23T10:20:13;17.60;;;3.50;;
13483;SDS011;6814;57.786;12.080;2024-03-23T10:22:51;21.00;;;4.03;;
13483;SDS011;6814;57.786;12.080;2024-03-23T10:25:17;19.13;;;4.47;;
13483;SDS011;6814;57.786;12.080;2024-03-23T10:27:44;16.17;;;3.93;;
13483;SDS011;6814;57.786;12.080;2024-03-23T10:30:11;18.20;;;4.07;;
13483;SDS011;6814;57.786;12.080;2024-03-23T10:32:37;18.23;;;3.73;;
13483;SDS011;6814;57.786;12.080;2024-03-23T10:35:16;19.97;;;4.27;;
13483;SDS011;6814;57.786;12.080;2024-03-23T10:37:44;23.57;;;4.40;;
13483;SDS011;6814;57.786;12.080;2024-03-23T10:40:13;23.63;;;4.70;;
13483;SDS011;6814;57.786;12.080;2024-03-23T10:42:39;20.20;;;4.20;;
13483;SDS011;6814;57.786;12.080;2024-03-23T10:45:06;18.33;;;3.93;;
13483;SDS011;6814;57.786;12.080;2024-03-23T10:47:33;16.93;;;4.33;;
13483;SDS011;6814;57.786;12.080;2024-03-23T10:50:00;16.83;;;3.63;;
13483;SDS011;6814;57.786;12.080;2024-03-23T10:52:26;19.37;;;3.60;;
13483;SDS011;6814;57.786;12.080;2024-03-23T10:54:53;20.83;;;3.93;;
13483;SDS011;6814;57.786;12.080;2024-03-23T10:57:21;16.13;;;3.87;;
13483;SDS011;6814;57.786;12.080;2024-03-23T10:59:48;19.03;;;4.90;;
13483;SDS011;6814;57.786;12.080;2024-03-23T11:02:18;14.63;;;4.00;;
13483;SDS011;6814;57.786;12.080;2024-03-23T11:04:45;14.83;;;3.83;;
13483;SDS011;6814;57.786;12.080;2024-03-23T11:09:54;19.80;;;3.67;;
13483;SDS011;6814;57.786;12.080;2024-03-23T11:12:29;20.27;;;3.80;;
13483;SDS011;6814;57.786;12.080;2024-03-23T11:14:59;17.87;;;4.50;;
13483;SDS011;6814;57.786;12.080;2024-03-23T11:17:25;17.47;;;3.53;;
13483;SDS011;6814;57.786;12.080;2024-03-23T11:19:52;17.00;;;4.13;;
13483;SDS011;6814;57.786;12.080;2024-03-23T11:22:26;17.53;;;3.80;;
13483;SDS011;6814;57.786;12.080;2024-03-23T11:25:12;19.47;;;3.87;;
13483;SDS011;6814;57.786;12.080;2024-03-23T11:27:39;15.80;;;3.47;;
13483;SDS011;6814;57.786;12.080;2024-03-23T11:30:13;15.90;;;3.57;;
13483;SDS011;6814;57.786;12.080;2024-03-23T11:32:39;20.27;;;3.73;;
13483;SDS011;6814;57.786;12.080;2024-03-23T11:35:06;15.87;;;3.87;;
13483;SDS011;6814;57.786;12.080;2024-03-23T11:37:32;16.60;;;4.17;;
13483;SDS011;6814;57.786;12.080;2024-03-23T11:39:59;14.87;;;3.73;;
13483;SDS011;6814;57.786;12.080;2024-03-23T11:42:25;16.03;;;3.47;;
13483;SDS011;6814;57.786;12.080;2024-03-23T11:44:56;15.37;;;3.07;;
13483;SDS011;6814;57.786;12.080;2024-03-23T11:47:23;16.40;;;3.53;;
13483;SDS011;6814;57.786;12.080;2024-03-23T11:49:55;14.20;;;3.37;;
13483;SDS011;6814;57.786;12.080;2024-03-23T11:52:20;15.03;;;3.70;;
13483;SDS011;6814;57.786;12.080;2024-03-23T11:54:47;15.27;;;4.33;;
13483;SDS011;6814;57.786;12.080;2024-03-23T11:57:13;11.53;;;3.23;;
13483;SDS011;6814;57.786;12.080;2024-03-23T11:59:40;16.73;;;3.50;;
13483;SDS011;6814;57.786;12.080;2024-03-23T12:02:07;15.13;;;3.23;;
13483;SDS011;6814;57.786;12.080;2024-03-23T12:04:35;14.73;;;3.37;;
13483;SDS011;6814;57.786;12.080;2024-03-23T12:07:14;11.03;;;2.67;;
13483;SDS011;6814;57.786;12.080;2024-03-23T12:09:43;12.57;;;2.60;;
13483;SDS011;6814;57.786;12.080;2024-03-23T12:12:10;15.33;;;2.80;;
13483;SDS011;6814;57.786;12.080;2024-03-23T12:14:37;10.93;;;2.67;;
13483;SDS011;6814;57.786;12.080;2024-03-23T12:17:18;13.67;;;3.10;;
13483;SDS011;6814;57.786;12.080;2024-03-23T12:19:48;14.17;;;3.50;;
13483;SDS011;6814;57.786;12.080;2024-03-23T12:22:13;16.87;;;3.60;;
13483;SDS011;6814;57.786;12.080;2024-03-23T12:24:40;15.53;;;3.63;;
13483;SDS011;6814;57.786;12.080;2024-03-23T12:27:10;12.43;;;3.90;;
13483;SDS011;6814;57.786;12.080;2024-03-23T12:29:36;16.33;;;3.93;;
13483;SDS011;6814;57.786;12.080;2024-03-23T12:32:04;15.60;;;3.83;;
13483;SDS011;6814;57.786;12.080;2024-03-23T12:34:34;17.40;;;3.77;;
13483;SDS011;6814;57.786;12.080;2024-03-23T12:37:00;16.37;;;3.53;;
13483;SDS011;6814;57.786;12.080;2024-03-23T12:39:26;11.07;;;2.90;;
13483;SDS011;6814;57.786;12.080;2024-03-23T12:41:53;15.50;;;3.20;;
13483;SDS011;6814;57.786;12.080;2024-03-23T12:44:19;12.53;;;3.20;;
13483;SDS011;6814;57.786;12.080;2024-03-23T12:46:46;14.87;;;2.87;;
13483;SDS011;6814;57.786;12.080;2024-03-23T12:49:11;10.93;;;3.50;;
13483;SDS011;6814;57.786;12.080;2024-03-23T12:51:39;13.80;;;2.73;;
13483;SDS011;6814;57.786;12.080;2024-03-23T12:54:11;17.83;;;3.90;;
13483;SDS011;6814;57.786;12.080;2024-03-23T12:56:38;12.77;;;3.23;;
13483;SDS011;6814;57.786;12.080;2024-03-23T12:59:04;16.10;;;3.17;;
13483;SDS011;6814;57.786;12.080;2024-03-23T13:01:30;12.67;;;3.27;;
13483;SDS011;6814;57.786;12.080;2024-03-23T13:03:56;14.57;;;3.70;;
13483;SDS011;6814;57.786;12.080;2024-03-23T13:06:24;12.47;;;3.50;;
13483;SDS011;6814;57.786;12.080;2024-03-23T13:08:51;13.47;;;2.97;;
13483;SDS011;6814;57.786;12.080;2024-03-23T13:11:20;12.57;;;2.83;;
13483;SDS011;6814;57.786;12.080;2024-03-23T13:13:45;15.30;;;2.97;;
13483;SDS011;6814;57.786;12.080;2024-03-23T13:16:12;15.30;;;2.77;;
13483;SDS011;6814;57.786;12.080;2024-03-23T13:18:37;17.90;;;3.20;;
13483;SDS011;6814;57.786;12.080;2024-03-23T13:21:04;10.33;;;2.23;;
13483;SDS011;6814;57.786;12.080;2024-03-23T13:23:30;8.37;;;2.10;;
13483;SDS011;6814;57.786;12.080;2024-03-23T13:25:59;11.90;;;2.83;;
13483;SDS011;6814;57.786;12.080;2024-03-23T13:28:24;13.00;;;3.13;;
13483;SDS011;6814;57.786;12.080;2024-03-23T13:30:51;14.47;;;3.00;;
13483;SDS011;6814;57.786;12.080;2024-03-23T13:33:17;13.50;;;3.17;;
13483;SDS011;6814;57.786;12.080;2024-03-23T13:35:49;15.73;;;3.40;;
13483;SDS011;6814;57.786;12.080;2024-03-23T13:38:15;10.83;;;2.47;;
13483;SDS011;6814;57.786;12.080;2024-03-23T13:40:49;11.63;;;3.03;;
13483;SDS011;6814;57.786;12.080;2024-03-23T13:43:16;8.83;;;2.30;;
13483;SDS011;6814;57.786;12.080;2024-03-23T13:45:42;10.20;;;2.73;;
13483;SDS011;6814;57.786;12.080;2024-03-23T13:48:08;6.97;;;2.53;;
13483;SDS011;6814;57.786;12.080;2024-03-23T13:50:35;8.87;;;3.13;;
13483;SDS011;6814;57.786;12.080;2024-03-23T13:53:00;7.67;;;2.73;;
13483;SDS011;6814;57.786;12.080;2024-03-23T13:55:27;12.67;;;3.27;;
13483;SDS011;6814;57.786;12.080;2024-03-23T13:57:52;10.23;;;3.00;;
13483;SDS011;6814;57.786;12.080;2024-03-23T14:00:21;11.00;;;3.17;;
13483;SDS011;6814;57.786;12.080;2024-03-23T14:02:47;15.43;;;3.00;;
13483;SDS011;6814;57.786;12.080;2024-03-23T14:05:14;7.83;;;2.23;;
13483;SDS011;6814;57.786;12.080;2024-03-23T14:07:39;11.10;;;3.03;;
13483;SDS011;6814;57.786;12.080;2024-03-23T14:10:06;9.80;;;2.73;;
13483;SDS011;6814;57.786;12.080;2024-03-23T14:12:32;10.17;;;2.60;;
13483;SDS011;6814;57.786;12.080;2024-03-23T14:14:58;11.63;;;2.03;;
13483;SDS011;6814;57.786;12.080;2024-03-23T14:17:26;7.37;;;2.20;;
13483;SDS011;6814;57.786;12.080;2024-03-23T14:19:52;7.60;;;2.50;;
13483;SDS011;6814;57.786;12.080;2024-03-23T14:22:18;10.37;;;2.60;;
13483;SDS011;6814;57.786;12.080;2024-03-23T14:24:47;7.83;;;2.20;;
13483;SDS011;6814;57.786;12.080;2024-03-23T14:27:13;5.77;;;1.67;;
13483;SDS011;6814;57.786;12.080;2024-03-23T14:29:40;6.27;;;1.83;;
13483;SDS011;6814;57.786;12.080;2024-03-23T14:32:05;6.07;;;1.57;;
13483;SDS011;6814;57.786;12.080;2024-03-23T14:34:33;5.57;;;2.00;;
13483;SDS011;6814;57.786;12.080;2024-03-23T14:37:00;5.07;;;1.57;;
13483;SDS011;6814;57.786;12.080;2024-03-23T14:39:28;5.30;;;1.47;;
13483;SDS011;6814;57.786;12.080;2024-03-23T14:41:55;9.23;;;2.40;;
13483;SDS011;6814;57.786;12.080;2024-03-23T14:44:22;3.90;;;2.37;;
13483;SDS011;6814;57.786;12.080;2024-03-23T14:46:49;7.00;;;2.17;;
13483;SDS011;6814;57.786;12.080;2024-03-23T14:49:17;9.67;;;2.80;;
13483;SDS011;6814;57.786;12.080;2024-03-23T14:51:45;9.60;;;2.93;;
13483;SDS011;6814;57.786;12.080;2024-03-23T14:54:12;7.20;;;1.73;;
13483;SDS011;6814;57.786;12.080;2024-03-23T14:56:38;8.77;;;2.57;;
13483;SDS011;6814;57.786;12.080;2024-03-23T14:59:05;7.87;;;2.10;;
13483;SDS011;6814;57.786;12.080;2024-03-23T15:01:32;6.90;;;1.80;;
13483;SDS011;6814;57.786;12.080;2024-03-23T15:03:59;8.03;;;2.13;;
13483;SDS011;6814;57.786;12.080;2024-03-23T15:06:24;10.97;;;2.43;;
13483;SDS011;6814;57.786;12.080;2024-03-23T15:08:54;9.10;;;2.20;;
13483;SDS011;6814;57.786;12.080;2024-03-23T15:11:19;10.50;;;2.07;;
13483;SDS011;6814;57.786;12.080;2024-03-23T15:13:46;6.43;;;1.83;;
13483;SDS011;6814;57.786;12.080;2024-03-23T15:16:16;8.23;;;1.83;;
13483;SDS011;6814;57.786;12.080;2024-03-23T15:18:44;10.83;;;2.17;;
13483;SDS011;6814;57.786;12.080;2024-03-23T15:21:10;9.20;;;2.27;;
13483;SDS011;6814;57.786;12.080;2024-03-23T15:23:37;10.13;;;2.70;;
13483;SDS011;6814;57.786;12.080;2024-03-23T15:26:08;11.53;;;2.40;;
13483;SDS011;6814;57.786;12.080;2024-03-23T15:28:35;9.33;;;2.77;;
13483;SDS011;6814;57.786;12.080;2024-03-23T15:31:06;9.97;;;2.43;;